sensor_id;sensor_type;location;lat;lon;timestamp;temperature;humidity
10312;DHT22;5201;48.776;9.128;2023-06-14T00:00:52;17.70;77.30
10312;DHT22;5201;48.776;9.128;2023-06-14T00:03:18;17.70;77.70
10312;DHT22;5201;48.776;9.128;2023-06-14T00:05:47;17.70;76.70
10312;DHT22;5201;48.776;9.128;2023-06-14T00:08:14;17.60;77.50
10312;DHT22;5201;48.776;9.128;2023-06-14T00:10:40;17.60;77.60
10312;DHT22;5201;48.776;9.128;2023-06-14T00:13:08;17.60;76.50
10312;DHT22;5201;48.776;9.128;2023-06-14T00:15:34;17.80;76.90
10312;DHT22;5201;48.776;9.128;2023-06-14T00:18:01;17.60;76.40
10312;DHT22;5201;48.776;9.128;2023-06-14T00:20:28;17.50;77.20
10312;DHT22;5201;48.776;9.128;2023-06-14T00:22:54;17.50;78.70
10312;DHT22;5201;48.776;9.128;2023-06-14T00:25:23;17.40;78.10
10312;DHT22;5201;48.776;9.128;2023-06-14T00:27:51;17.30;78.70
10312;DHT22;5201;48.776;9.128;2023-06-14T00:30:16;17.30;78.20
10312;DHT22;5201;48.776;9.128;2023-06-14T00:32:42;17.20;79.00
10312;DHT22;5201;48.776;9.128;2023-06-14T00:35:08;17.20;79.00
10312;DHT22;5201;48.776;9.128;2023-06-14T00:37:35;17.30;79.70
10312;DHT22;5201;48.776;9.128;2023-06-14T00:40:00;17.20;78.50
10312;DHT22;5201;48.776;9.128;2023-06-14T00:42:27;17.60;80.00
10312;DHT22;5201;48.776;9.128;2023-06-14T00:44:53;17.10;79.60
10312;DHT22;5201;48.776;9.128;2023-06-14T00:47:19;17.10;80.10
10312;DHT22;5201;48.776;9.128;2023-06-14T00:49:53;17.10;80.80
10312;DHT22;5201;48.776;9.128;2023-06-14T00:52:19;17.00;79.50
10312;DHT22;5201;48.776;9.128;2023-06-14T00:54:45;16.90;79.50
10312;DHT22;5201;48.776;9.128;2023-06-14T00:57:11;16.90;80.30
10312;DHT22;5201;48.776;9.128;2023-06-14T00:59:48;17.00;80.50
10312;DHT22;5201;48.776;9.128;2023-06-14T01:02:14;16.90;79.30
10312;DHT22;5201;48.776;9.128;2023-06-14T01:04:41;16.90;80.40
10312;DHT22;5201;48.776;9.128;2023-06-14T01:07:41;16.90;80.30
10312;DHT22;5201;48.776;9.128;2023-06-14T01:10:35;16.70;80.30
10312;DHT22;5201;48.776;9.128;2023-06-14T01:15:45;16.60;81.00
10312;DHT22;5201;48.776;9.128;2023-06-14T01:18:12;16.60;81.00
10312;DHT22;5201;48.776;9.128;2023-06-14T01:20:43;16.60;82.00
10312;DHT22;5201;48.776;9.128;2023-06-14T01:23:11;16.70;81.80
10312;DHT22;5201;48.776;9.128;2023-06-14T01:25:40;16.70;82.10
10312;DHT22;5201;48.776;9.128;2023-06-14T01:28:10;16.70;82.00
10312;DHT22;5201;48.776;9.128;2023-06-14T01:30:42;17.00;82.70
10312;DHT22;5201;48.776;9.128;2023-06-14T01:33:15;16.50;82.10
10312;DHT22;5201;48.776;9.128;2023-06-14T01:35:44;16.50;82.60
10312;DHT22;5201;48.776;9.128;2023-06-14T01:38:10;16.50;82.90
10312;DHT22;5201;48.776;9.128;2023-06-14T01:40:36;16.50;83.50
10312;DHT22;5201;48.776;9.128;2023-06-14T01:43:03;16.40;84.00
10312;DHT22;5201;48.776;9.128;2023-06-14T01:45:29;16.40;83.10
10312;DHT22;5201;48.776;9.128;2023-06-14T01:47:55;16.30;82.50
10312;DHT22;5201;48.776;9.128;2023-06-14T01:50:21;16.20;82.10
10312;DHT22;5201;48.776;9.128;2023-06-14T01:52:47;16.00;84.10
10312;DHT22;5201;48.776;9.128;2023-06-14T01:55:13;16.10;82.80
10312;DHT22;5201;48.776;9.128;2023-06-14T01:57:38;16.00;83.00
10312;DHT22;5201;48.776;9.128;2023-06-14T02:00:05;16.20;83.10
10312;DHT22;5201;48.776;9.128;2023-06-14T02:02:38;16.10;82.80
10312;DHT22;5201;48.776;9.128;2023-06-14T02:05:03;16.10;83.20
10312;DHT22;5201;48.776;9.128;2023-06-14T02:07:29;16.10;83.60
10312;DHT22;5201;48.776;9.128;2023-06-14T02:09:55;16.10;84.20
10312;DHT22;5201;48.776;9.128;2023-06-14T02:12:20;16.40;84.40
10312;DHT22;5201;48.776;9.128;2023-06-14T02:14:46;16.00;84.20
10312;DHT22;5201;48.776;9.128;2023-06-14T02:17:11;16.00;84.40
10312;DHT22;5201;48.776;9.128;2023-06-14T02:19:37;15.90;83.80
10312;DHT22;5201;48.776;9.128;2023-06-14T02:22:03;15.90;84.10
10312;DHT22;5201;48.776;9.128;2023-06-14T02:24:28;15.90;83.80
10312;DHT22;5201;48.776;9.128;2023-06-14T02:26:54;16.00;84.00
10312;DHT22;5201;48.776;9.128;2023-06-14T02:29:20;15.90;84.30
10312;DHT22;5201;48.776;9.128;2023-06-14T02:31:46;15.70;84.60
10312;DHT22;5201;48.776;9.128;2023-06-14T02:34:13;15.70;84.40
10312;DHT22;5201;48.776;9.128;2023-06-14T02:36:39;15.80;85.00
10312;DHT22;5201;48.776;9.128;2023-06-14T02:39:07;16.40;85.80
10312;DHT22;5201;48.776;9.128;2023-06-14T02:41:34;15.70;84.70
10312;DHT22;5201;48.776;9.128;2023-06-14T02:44:00;15.60;84.40
10312;DHT22;5201;48.776;9.128;2023-06-14T02:46:26;15.60;84.90
10312;DHT22;5201;48.776;9.128;2023-06-14T02:48:51;15.60;85.10
10312;DHT22;5201;48.776;9.128;2023-06-14T02:51:17;15.60;85.40
10312;DHT22;5201;48.776;9.128;2023-06-14T02:53:42;15.50;85.50
10312;DHT22;5201;48.776;9.128;2023-06-14T02:56:09;15.50;86.00
10312;DHT22;5201;48.776;9.128;2023-06-14T02:58:36;15.50;86.10
10312;DHT22;5201;48.776;9.128;2023-06-14T03:01:02;15.50;85.80
10312;DHT22;5201;48.776;9.128;2023-06-14T03:03:29;15.40;85.80
10312;DHT22;5201;48.776;9.128;2023-06-14T03:05:55;15.40;85.60
10312;DHT22;5201;48.776;9.128;2023-06-14T03:08:20;15.40;85.80
10312;DHT22;5201;48.776;9.128;2023-06-14T03:10:47;15.30;86.30
10312;DHT22;5201;48.776;9.128;2023-06-14T03:13:15;15.40;86.10
10312;DHT22;5201;48.776;9.128;2023-06-14T03:15:44;15.70;87.10
10312;DHT22;5201;48.776;9.128;2023-06-14T03:18:10;15.40;87.20
10312;DHT22;5201;48.776;9.128;2023-06-14T03:20:37;15.40;87.20
10312;DHT22;5201;48.776;9.128;2023-06-14T03:23:04;15.30;87.60
10312;DHT22;5201;48.776;9.128;2023-06-14T03:25:31;15.80;87.70
10312;DHT22;5201;48.776;9.128;2023-06-14T03:27:57;15.30;87.70
10312;DHT22;5201;48.776;9.128;2023-06-14T03:30:23;15.30;87.70
10312;DHT22;5201;48.776;9.128;2023-06-14T03:32:48;15.20;87.80
10312;DHT22;5201;48.776;9.128;2023-06-14T03:35:14;15.20;87.70
10312;DHT22;5201;48.776;9.128;2023-06-14T03:37:46;15.20;88.50
10312;DHT22;5201;48.776;9.128;2023-06-14T03:40:16;15.20;88.50
10312;DHT22;5201;48.776;9.128;2023-06-14T03:42:41;15.60;89.30
10312;DHT22;5201;48.776;9.128;2023-06-14T03:45:07;15.30;88.60
10312;DHT22;5201;48.776;9.128;2023-06-14T03:47:34;15.40;88.40
10312;DHT22;5201;48.776;9.128;2023-06-14T03:50:00;15.80;88.90
10312;DHT22;5201;48.776;9.128;2023-06-14T03:52:27;16.00;87.90
10312;DHT22;5201;48.776;9.128;2023-06-14T03:54:52;16.20;87.50
10312;DHT22;5201;48.776;9.128;2023-06-14T03:57:18;16.40;86.80
10312;DHT22;5201;48.776;9.128;2023-06-14T03:59:44;16.70;86.60
10312;DHT22;5201;48.776;9.128;2023-06-14T04:02:09;17.00;86.30
10312;DHT22;5201;48.776;9.128;2023-06-14T04:04:36;17.20;85.10
10312;DHT22;5201;48.776;9.128;2023-06-14T04:07:02;17.40;84.50
10312;DHT22;5201;48.776;9.128;2023-06-14T04:09:29;17.60;84.70
10312;DHT22;5201;48.776;9.128;2023-06-14T04:11:55;17.90;84.10
10312;DHT22;5201;48.776;9.128;2023-06-14T04:14:21;18.20;82.10
10312;DHT22;5201;48.776;9.128;2023-06-14T04:16:47;18.50;81.70
10312;DHT22;5201;48.776;9.128;2023-06-14T04:19:13;18.70;82.30
10312;DHT22;5201;48.776;9.128;2023-06-14T04:21:39;19.00;82.80
10312;DHT22;5201;48.776;9.128;2023-06-14T04:24:05;19.30;81.80
10312;DHT22;5201;48.776;9.128;2023-06-14T04:26:32;19.50;82.00
10312;DHT22;5201;48.776;9.128;2023-06-14T04:28:59;19.90;81.20
10312;DHT22;5201;48.776;9.128;2023-06-14T04:31:28;20.10;80.20
10312;DHT22;5201;48.776;9.128;2023-06-14T04:33:55;20.30;78.70
10312;DHT22;5201;48.776;9.128;2023-06-14T04:36:21;20.60;78.80
10312;DHT22;5201;48.776;9.128;2023-06-14T04:38:46;20.80;78.30
10312;DHT22;5201;48.776;9.128;2023-06-14T04:41:14;21.00;78.00
10312;DHT22;5201;48.776;9.128;2023-06-14T04:43:41;21.30;78.50
10312;DHT22;5201;48.776;9.128;2023-06-14T04:46:08;21.70;77.80
10312;DHT22;5201;48.776;9.128;2023-06-14T04:48:40;21.80;77.20
10312;DHT22;5201;48.776;9.128;2023-06-14T04:51:08;22.10;76.60
10312;DHT22;5201;48.776;9.128;2023-06-14T04:53:34;22.40;75.40
10312;DHT22;5201;48.776;9.128;2023-06-14T04:56:00;22.60;74.30
10312;DHT22;5201;48.776;9.128;2023-06-14T04:58:27;22.90;74.30
10312;DHT22;5201;48.776;9.128;2023-06-14T05:00:54;23.20;72.90
10312;DHT22;5201;48.776;9.128;2023-06-14T05:03:21;23.30;73.30
10312;DHT22;5201;48.776;9.128;2023-06-14T05:05:48;23.50;72.70
10312;DHT22;5201;48.776;9.128;2023-06-14T05:08:14;23.60;72.50
10312;DHT22;5201;48.776;9.128;2023-06-14T05:10:39;23.80;72.00
10312;DHT22;5201;48.776;9.128;2023-06-14T05:13:05;23.80;71.90
10312;DHT22;5201;48.776;9.128;2023-06-14T05:15:30;23.80;72.10
10312;DHT22;5201;48.776;9.128;2023-06-14T05:17:56;23.40;71.80
10312;DHT22;5201;48.776;9.128;2023-06-14T05:20:23;22.80;72.60
10312;DHT22;5201;48.776;9.128;2023-06-14T05:22:53;22.20;72.60
10312;DHT22;5201;48.776;9.128;2023-06-14T05:25:22;21.50;73.40
10312;DHT22;5201;48.776;9.128;2023-06-14T05:27:48;20.90;75.30
10312;DHT22;5201;48.776;9.128;2023-06-14T05:30:15;20.50;76.00
10312;DHT22;5201;48.776;9.128;2023-06-14T05:32:41;20.10;76.20
10312;DHT22;5201;48.776;9.128;2023-06-14T05:35:07;19.80;76.90
10312;DHT22;5201;48.776;9.128;2023-06-14T05:37:33;19.50;76.90
10312;DHT22;5201;48.776;9.128;2023-06-14T05:39:58;19.70;77.50
10312;DHT22;5201;48.776;9.128;2023-06-14T05:42:24;19.10;78.20
10312;DHT22;5201;48.776;9.128;2023-06-14T05:44:49;19.10;78.60
10312;DHT22;5201;48.776;9.128;2023-06-14T05:47:15;19.10;79.10
10312;DHT22;5201;48.776;9.128;2023-06-14T05:49:41;19.10;78.60
10312;DHT22;5201;48.776;9.128;2023-06-14T05:52:08;19.00;79.00
10312;DHT22;5201;48.776;9.128;2023-06-14T05:54:33;19.00;78.80
10312;DHT22;5201;48.776;9.128;2023-06-14T05:56:59;18.90;79.20
10312;DHT22;5201;48.776;9.128;2023-06-14T05:59:30;19.30;79.40
10312;DHT22;5201;48.776;9.128;2023-06-14T06:01:55;20.00;79.10
10312;DHT22;5201;48.776;9.128;2023-06-14T06:04:21;20.60;77.10
10312;DHT22;5201;48.776;9.128;2023-06-14T06:06:46;21.80;75.10
10312;DHT22;5201;48.776;9.128;2023-06-14T06:09:13;21.00;71.80
10312;DHT22;5201;48.776;9.128;2023-06-14T06:11:40;24.00;72.20
10312;DHT22;5201;48.776;9.128;2023-06-14T06:14:05;25.00;69.70
10312;DHT22;5201;48.776;9.128;2023-06-14T06:16:31;25.80;68.10
10312;DHT22;5201;48.776;9.128;2023-06-14T06:18:56;26.30;66.80
10312;DHT22;5201;48.776;9.128;2023-06-14T06:21:22;26.70;66.00
10312;DHT22;5201;48.776;9.128;2023-06-14T06:23:47;27.10;65.60
10312;DHT22;5201;48.776;9.128;2023-06-14T06:26:13;27.40;64.30
10312;DHT22;5201;48.776;9.128;2023-06-14T06:28:39;27.70;65.30
10312;DHT22;5201;48.776;9.128;2023-06-14T06:31:04;27.80;62.60
10312;DHT22;5201;48.776;9.128;2023-06-14T06:33:30;27.80;63.70
10312;DHT22;5201;48.776;9.128;2023-06-14T06:35:56;27.90;63.70
10312;DHT22;5201;48.776;9.128;2023-06-14T06:38:21;28.00;63.30
10312;DHT22;5201;48.776;9.128;2023-06-14T06:40:47;27.90;62.20
10312;DHT22;5201;48.776;9.128;2023-06-14T06:43:12;28.10;63.80
10312;DHT22;5201;48.776;9.128;2023-06-14T06:45:42;28.20;64.20
10312;DHT22;5201;48.776;9.128;2023-06-14T06:48:08;28.30;62.80
10312;DHT22;5201;48.776;9.128;2023-06-14T06:50:36;28.30;63.10
10312;DHT22;5201;48.776;9.128;2023-06-14T06:53:01;28.40;64.00
10312;DHT22;5201;48.776;9.128;2023-06-14T06:55:27;28.50;64.60
10312;DHT22;5201;48.776;9.128;2023-06-14T06:57:53;28.80;64.20
10312;DHT22;5201;48.776;9.128;2023-06-14T07:00:19;29.20;63.80
10312;DHT22;5201;48.776;9.128;2023-06-14T07:02:45;29.60;62.80
10312;DHT22;5201;48.776;9.128;2023-06-14T07:05:11;29.90;62.60
10312;DHT22;5201;48.776;9.128;2023-06-14T07:07:37;30.30;62.60
10312;DHT22;5201;48.776;9.128;2023-06-14T07:10:04;30.50;62.10
10312;DHT22;5201;48.776;9.128;2023-06-14T07:12:31;30.50;61.60
10312;DHT22;5201;48.776;9.128;2023-06-14T07:14:59;30.50;60.80
10312;DHT22;5201;48.776;9.128;2023-06-14T07:17:24;30.20;60.60
10312;DHT22;5201;48.776;9.128;2023-06-14T07:19:50;30.20;61.40
10312;DHT22;5201;48.776;9.128;2023-06-14T07:22:16;30.50;62.30
10312;DHT22;5201;48.776;9.128;2023-06-14T07:24:43;30.30;60.10
10312;DHT22;5201;48.776;9.128;2023-06-14T07:27:08;30.40;62.00
10312;DHT22;5201;48.776;9.128;2023-06-14T07:29:34;30.70;60.90
10312;DHT22;5201;48.776;9.128;2023-06-14T07:32:00;30.50;62.60
10312;DHT22;5201;48.776;9.128;2023-06-14T07:34:25;30.80;61.40
10312;DHT22;5201;48.776;9.128;2023-06-14T07:36:51;30.70;61.70
10312;DHT22;5201;48.776;9.128;2023-06-14T07:39:17;31.00;62.10
10312;DHT22;5201;48.776;9.128;2023-06-14T07:41:42;31.40;60.40
10312;DHT22;5201;48.776;9.128;2023-06-14T07:44:08;31.50;57.70
10312;DHT22;5201;48.776;9.128;2023-06-14T07:46:34;31.60;60.20
10312;DHT22;5201;48.776;9.128;2023-06-14T07:49:00;31.50;59.00
10312;DHT22;5201;48.776;9.128;2023-06-14T07:51:26;31.50;57.00
10312;DHT22;5201;48.776;9.128;2023-06-14T07:53:51;31.30;59.00
10312;DHT22;5201;48.776;9.128;2023-06-14T07:56:17;31.50;58.30
10312;DHT22;5201;48.776;9.128;2023-06-14T07:58:42;31.60;57.10
10312;DHT22;5201;48.776;9.128;2023-06-14T08:01:08;31.50;58.20
10312;DHT22;5201;48.776;9.128;2023-06-14T08:03:34;31.30;57.80
10312;DHT22;5201;48.776;9.128;2023-06-14T08:06:00;30.90;57.30
10312;DHT22;5201;48.776;9.128;2023-06-14T08:08:26;30.50;58.20
10312;DHT22;5201;48.776;9.128;2023-06-14T08:10:52;30.20;57.90
10312;DHT22;5201;48.776;9.128;2023-06-14T08:13:17;30.30;58.70
10312;DHT22;5201;48.776;9.128;2023-06-14T08:15:43;30.10;58.60
10312;DHT22;5201;48.776;9.128;2023-06-14T08:18:09;30.30;60.60
10312;DHT22;5201;48.776;9.128;2023-06-14T08:20:34;30.70;59.70
10312;DHT22;5201;48.776;9.128;2023-06-14T08:23:02;31.00;59.30
10312;DHT22;5201;48.776;9.128;2023-06-14T08:25:29;31.20;58.30
10312;DHT22;5201;48.776;9.128;2023-06-14T08:27:55;31.20;57.80
10312;DHT22;5201;48.776;9.128;2023-06-14T08:30:21;30.90;59.30
10312;DHT22;5201;48.776;9.128;2023-06-14T08:32:47;30.60;59.10
10312;DHT22;5201;48.776;9.128;2023-06-14T08:35:12;30.40;58.80
10312;DHT22;5201;48.776;9.128;2023-06-14T08:37:41;30.40;60.30
10312;DHT22;5201;48.776;9.128;2023-06-14T08:40:23;30.50;61.00
10312;DHT22;5201;48.776;9.128;2023-06-14T08:42:53;30.50;61.20
10312;DHT22;5201;48.776;9.128;2023-06-14T08:45:20;30.50;60.70
10312;DHT22;5201;48.776;9.128;2023-06-14T08:47:47;30.70;60.40
10312;DHT22;5201;48.776;9.128;2023-06-14T08:50:20;30.90;60.70
10312;DHT22;5201;48.776;9.128;2023-06-14T08:52:48;31.40;59.50
10312;DHT22;5201;48.776;9.128;2023-06-14T08:55:18;31.50;58.20
10312;DHT22;5201;48.776;9.128;2023-06-14T08:57:46;30.80;59.70
10312;DHT22;5201;48.776;9.128;2023-06-14T09:00:14;30.80;59.70
10312;DHT22;5201;48.776;9.128;2023-06-14T09:02:40;30.80;60.00
10312;DHT22;5201;48.776;9.128;2023-06-14T09:05:09;30.70;58.70
10312;DHT22;5201;48.776;9.128;2023-06-14T09:07:37;30.50;60.00
10312;DHT22;5201;48.776;9.128;2023-06-14T09:10:08;30.60;60.60
10312;DHT22;5201;48.776;9.128;2023-06-14T09:12:35;30.80;59.80
10312;DHT22;5201;48.776;9.128;2023-06-14T09:15:00;30.90;60.00
10312;DHT22;5201;48.776;9.128;2023-06-14T09:17:32;30.90;59.20
10312;DHT22;5201;48.776;9.128;2023-06-14T09:19:59;30.90;60.70
10312;DHT22;5201;48.776;9.128;2023-06-14T09:22:24;32.90;61.20
10312;DHT22;5201;48.776;9.128;2023-06-14T09:24:50;31.10;60.30
10312;DHT22;5201;48.776;9.128;2023-06-14T09:27:16;31.00;60.20
10312;DHT22;5201;48.776;9.128;2023-06-14T09:29:41;31.00;61.60
10312;DHT22;5201;48.776;9.128;2023-06-14T09:32:07;31.30;59.90
10312;DHT22;5201;48.776;9.128;2023-06-14T09:34:34;31.10;58.40
10312;DHT22;5201;48.776;9.128;2023-06-14T09:37:00;31.10;58.80
10312;DHT22;5201;48.776;9.128;2023-06-14T09:39:26;31.10;59.80
10312;DHT22;5201;48.776;9.128;2023-06-14T09:41:52;31.00;58.80
10312;DHT22;5201;48.776;9.128;2023-06-14T09:44:18;30.20;58.60
10312;DHT22;5201;48.776;9.128;2023-06-14T09:46:46;30.60;60.00
10312;DHT22;5201;48.776;9.128;2023-06-14T09:49:11;30.40;58.10
10312;DHT22;5201;48.776;9.128;2023-06-14T09:51:43;29.90;59.70
10312;DHT22;5201;48.776;9.128;2023-06-14T09:54:14;29.70;60.30
10312;DHT22;5201;48.776;9.128;2023-06-14T09:56:47;29.80;61.40
10312;DHT22;5201;48.776;9.128;2023-06-14T09:59:19;30.10;60.70
10312;DHT22;5201;48.776;9.128;2023-06-14T10:01:46;30.20;59.20
10312;DHT22;5201;48.776;9.128;2023-06-14T10:04:12;30.40;59.70
10312;DHT22;5201;48.776;9.128;2023-06-14T10:06:43;30.50;57.60
10312;DHT22;5201;48.776;9.128;2023-06-14T10:09:11;30.70;57.90
10312;DHT22;5201;48.776;9.128;2023-06-14T10:11:38;30.80;58.60
10312;DHT22;5201;48.776;9.128;2023-06-14T10:14:10;30.40;57.30
10312;DHT22;5201;48.776;9.128;2023-06-14T10:19:11;30.00;59.20
10312;DHT22;5201;48.776;9.128;2023-06-14T10:22:02;30.00;55.20
10312;DHT22;5201;48.776;9.128;2023-06-14T10:24:48;30.30;57.30
10312;DHT22;5201;48.776;9.128;2023-06-14T10:27:15;30.60;57.30
10312;DHT22;5201;48.776;9.128;2023-06-14T10:32:22;30.80;56.80
10312;DHT22;5201;48.776;9.128;2023-06-14T10:34:57;30.20;56.50
10312;DHT22;5201;48.776;9.128;2023-06-14T10:37:23;29.60;58.10
10312;DHT22;5201;48.776;9.128;2023-06-14T10:39:50;28.70;59.20
10312;DHT22;5201;48.776;9.128;2023-06-14T10:42:16;28.40;60.90
10312;DHT22;5201;48.776;9.128;2023-06-14T10:44:55;28.20;62.20
10312;DHT22;5201;48.776;9.128;2023-06-14T10:47:34;28.50;60.30
10312;DHT22;5201;48.776;9.128;2023-06-14T10:50:08;28.90;60.40
10312;DHT22;5201;48.776;9.128;2023-06-14T10:52:37;29.40;60.40
10312;DHT22;5201;48.776;9.128;2023-06-14T10:55:12;29.50;59.00
10312;DHT22;5201;48.776;9.128;2023-06-14T10:57:53;29.10;59.70
10312;DHT22;5201;48.776;9.128;2023-06-14T11:00:25;28.70;58.20
10312;DHT22;5201;48.776;9.128;2023-06-14T11:10:45;27.10;60.80
10312;DHT22;5201;48.776;9.128;2023-06-14T11:13:11;26.60;63.90
10312;DHT22;5201;48.776;9.128;2023-06-14T11:15:38;26.40;63.00
10312;DHT22;5201;48.776;9.128;2023-06-14T11:18:07;26.40;62.00
10312;DHT22;5201;48.776;9.128;2023-06-14T11:20:36;26.00;62.70
10312;DHT22;5201;48.776;9.128;2023-06-14T11:23:02;25.80;63.70
10312;DHT22;5201;48.776;9.128;2023-06-14T11:25:27;25.70;62.80
10312;DHT22;5201;48.776;9.128;2023-06-14T11:27:54;25.80;61.00
10312;DHT22;5201;48.776;9.128;2023-06-14T11:30:21;26.10;59.50
10312;DHT22;5201;48.776;9.128;2023-06-14T11:32:47;26.70;61.00
10312;DHT22;5201;48.776;9.128;2023-06-14T11:35:13;27.20;60.40
10312;DHT22;5201;48.776;9.128;2023-06-14T11:37:39;27.50;61.70
10312;DHT22;5201;48.776;9.128;2023-06-14T11:40:08;27.70;60.30
10312;DHT22;5201;48.776;9.128;2023-06-14T11:42:35;27.70;60.10
10312;DHT22;5201;48.776;9.128;2023-06-14T11:45:02;27.40;59.30
10312;DHT22;5201;48.776;9.128;2023-06-14T11:47:35;27.20;60.00
10312;DHT22;5201;48.776;9.128;2023-06-14T11:50:01;26.80;59.80
10312;DHT22;5201;48.776;9.128;2023-06-14T11:52:27;26.60;60.20
10312;DHT22;5201;48.776;9.128;2023-06-14T11:54:54;26.70;61.10
10312;DHT22;5201;48.776;9.128;2023-06-14T11:57:19;26.90;58.60
10312;DHT22;5201;48.776;9.128;2023-06-14T11:59:45;27.00;59.90
10312;DHT22;5201;48.776;9.128;2023-06-14T12:02:18;27.00;59.40
10312;DHT22;5201;48.776;9.128;2023-06-14T12:04:47;27.20;59.20
10312;DHT22;5201;48.776;9.128;2023-06-14T12:07:15;27.20;59.90
10312;DHT22;5201;48.776;9.128;2023-06-14T12:09:43;27.20;60.40
10312;DHT22;5201;48.776;9.128;2023-06-14T12:12:36;27.20;60.30
10312;DHT22;5201;48.776;9.128;2023-06-14T12:15:05;27.20;59.20
10312;DHT22;5201;48.776;9.128;2023-06-14T12:17:33;27.00;59.40
10312;DHT22;5201;48.776;9.128;2023-06-14T12:19:59;26.90;60.70
10312;DHT22;5201;48.776;9.128;2023-06-14T12:22:25;26.80;62.20
10312;DHT22;5201;48.776;9.128;2023-06-14T12:24:53;26.80;60.80
10312;DHT22;5201;48.776;9.128;2023-06-14T12:27:21;26.70;60.70
10312;DHT22;5201;48.776;9.128;2023-06-14T12:30:02;26.40;60.30
10312;DHT22;5201;48.776;9.128;2023-06-14T12:32:29;26.30;62.50
10312;DHT22;5201;48.776;9.128;2023-06-14T12:34:55;26.30;59.70
10312;DHT22;5201;48.776;9.128;2023-06-14T12:37:20;26.20;60.90
10312;DHT22;5201;48.776;9.128;2023-06-14T12:39:46;26.10;62.20
10312;DHT22;5201;48.776;9.128;2023-06-14T12:42:12;26.10;62.20
10312;DHT22;5201;48.776;9.128;2023-06-14T12:44:40;26.10;62.30
10312;DHT22;5201;48.776;9.128;2023-06-14T12:47:07;26.00;62.00
10312;DHT22;5201;48.776;9.128;2023-06-14T12:49:33;26.10;60.90
10312;DHT22;5201;48.776;9.128;2023-06-14T12:51:58;26.00;61.50
10312;DHT22;5201;48.776;9.128;2023-06-14T12:54:24;26.00;60.70
10312;DHT22;5201;48.776;9.128;2023-06-14T12:56:51;25.90;61.00
10312;DHT22;5201;48.776;9.128;2023-06-14T12:59:17;25.60;62.10
10312;DHT22;5201;48.776;9.128;2023-06-14T13:01:43;25.40;62.00
10312;DHT22;5201;48.776;9.128;2023-06-14T13:04:10;25.30;62.60
10312;DHT22;5201;48.776;9.128;2023-06-14T13:06:36;25.30;63.00
10312;DHT22;5201;48.776;9.128;2023-06-14T13:09:02;25.30;62.80
10312;DHT22;5201;48.776;9.128;2023-06-14T13:11:29;25.30;64.20
10312;DHT22;5201;48.776;9.128;2023-06-14T13:13:55;25.30;61.60
10312;DHT22;5201;48.776;9.128;2023-06-14T13:16:21;25.40;62.20
10312;DHT22;5201;48.776;9.128;2023-06-14T13:18:47;24.50;62.60
10312;DHT22;5201;48.776;9.128;2023-06-14T13:21:12;25.70;61.60
10312;DHT22;5201;48.776;9.128;2023-06-14T13:23:38;25.60;62.10
10312;DHT22;5201;48.776;9.128;2023-06-14T13:26:03;25.60;61.00
10312;DHT22;5201;48.776;9.128;2023-06-14T13:28:29;25.40;61.30
10312;DHT22;5201;48.776;9.128;2023-06-14T13:30:57;25.20;62.80
10312;DHT22;5201;48.776;9.128;2023-06-14T13:33:26;25.00;62.90
10312;DHT22;5201;48.776;9.128;2023-06-14T13:35:52;24.80;63.40
10312;DHT22;5201;48.776;9.128;2023-06-14T13:38:18;24.80;64.30
10312;DHT22;5201;48.776;9.128;2023-06-14T13:40:44;24.70;62.90
10312;DHT22;5201;48.776;9.128;2023-06-14T13:43:10;24.80;62.90
10312;DHT22;5201;48.776;9.128;2023-06-14T13:45:35;24.80;62.70
10312;DHT22;5201;48.776;9.128;2023-06-14T13:48:01;24.90;62.10
10312;DHT22;5201;48.776;9.128;2023-06-14T13:50:27;24.90;62.40
10312;DHT22;5201;48.776;9.128;2023-06-14T13:52:53;25.00;62.10
10312;DHT22;5201;48.776;9.128;2023-06-14T13:55:18;25.00;61.30
10312;DHT22;5201;48.776;9.128;2023-06-14T13:57:44;25.10;60.80
10312;DHT22;5201;48.776;9.128;2023-06-14T14:00:11;25.00;61.10
10312;DHT22;5201;48.776;9.128;2023-06-14T14:02:36;25.00;60.70
10312;DHT22;5201;48.776;9.128;2023-06-14T14:05:02;24.90;62.80
10312;DHT22;5201;48.776;9.128;2023-06-14T14:07:28;24.90;62.20
10312;DHT22;5201;48.776;9.128;2023-06-14T14:09:55;24.90;63.30
10312;DHT22;5201;48.776;9.128;2023-06-14T14:12:23;25.00;63.30
10312;DHT22;5201;48.776;9.128;2023-06-14T14:14:48;25.20;63.40
10312;DHT22;5201;48.776;9.128;2023-06-14T14:17:14;25.40;62.40
10312;DHT22;5201;48.776;9.128;2023-06-14T14:19:40;25.50;62.70
10312;DHT22;5201;48.776;9.128;2023-06-14T14:22:05;25.80;64.00
10312;DHT22;5201;48.776;9.128;2023-06-14T14:24:31;25.80;62.10
10312;DHT22;5201;48.776;9.128;2023-06-14T14:26:56;25.80;61.60
10312;DHT22;5201;48.776;9.128;2023-06-14T14:29:25;25.70;62.40
10312;DHT22;5201;48.776;9.128;2023-06-14T14:31:50;25.60;61.00
10312;DHT22;5201;48.776;9.128;2023-06-14T14:34:16;25.50;63.10
10312;DHT22;5201;48.776;9.128;2023-06-14T14:36:41;25.40;63.30
10312;DHT22;5201;48.776;9.128;2023-06-14T14:39:08;25.40;64.90
10312;DHT22;5201;48.776;9.128;2023-06-14T14:41:34;25.40;63.50
10312;DHT22;5201;48.776;9.128;2023-06-14T14:43:59;25.30;65.00
10312;DHT22;5201;48.776;9.128;2023-06-14T14:46:27;25.40;64.30
10312;DHT22;5201;48.776;9.128;2023-06-14T14:48:54;25.40;65.00
10312;DHT22;5201;48.776;9.128;2023-06-14T14:51:19;25.40;64.00
10312;DHT22;5201;48.776;9.128;2023-06-14T14:53:45;25.40;63.50
10312;DHT22;5201;48.776;9.128;2023-06-14T14:56:10;25.30;63.30
10312;DHT22;5201;48.776;9.128;2023-06-14T14:58:37;25.30;63.70
10312;DHT22;5201;48.776;9.128;2023-06-14T15:01:03;25.10;64.60
10312;DHT22;5201;48.776;9.128;2023-06-14T15:03:29;25.10;63.50
10312;DHT22;5201;48.776;9.128;2023-06-14T15:05:54;25.00;63.60
10312;DHT22;5201;48.776;9.128;2023-06-14T15:08:20;25.00;63.00
10312;DHT22;5201;48.776;9.128;2023-06-14T15:10:45;24.90;63.20
10312;DHT22;5201;48.776;9.128;2023-06-14T15:13:12;24.90;64.10
10312;DHT22;5201;48.776;9.128;2023-06-14T15:15:38;24.90;64.00
10312;DHT22;5201;48.776;9.128;2023-06-14T15:18:03;24.80;64.60
10312;DHT22;5201;48.776;9.128;2023-06-14T15:20:29;24.80;63.50
10312;DHT22;5201;48.776;9.128;2023-06-14T15:22:55;24.70;65.30
10312;DHT22;5201;48.776;9.128;2023-06-14T15:25:30;24.70;65.50
10312;DHT22;5201;48.776;9.128;2023-06-14T15:27:57;24.60;70.50
10312;DHT22;5201;48.776;9.128;2023-06-14T15:30:22;24.60;71.50
10312;DHT22;5201;48.776;9.128;2023-06-14T15:32:48;24.60;66.20
10312;DHT22;5201;48.776;9.128;2023-06-14T15:35:17;24.60;65.20
10312;DHT22;5201;48.776;9.128;2023-06-14T15:37:47;24.60;65.30
10312;DHT22;5201;48.776;9.128;2023-06-14T15:40:13;24.60;64.00
10312;DHT22;5201;48.776;9.128;2023-06-14T15:42:39;24.60;67.10
10312;DHT22;5201;48.776;9.128;2023-06-14T15:45:05;24.60;65.70
10312;DHT22;5201;48.776;9.128;2023-06-14T15:47:30;24.70;64.80
10312;DHT22;5201;48.776;9.128;2023-06-14T15:49:56;24.60;64.70
10312;DHT22;5201;48.776;9.128;2023-06-14T15:52:21;24.60;65.60
10312;DHT22;5201;48.776;9.128;2023-06-14T15:54:47;24.60;66.60
10312;DHT22;5201;48.776;9.128;2023-06-14T15:57:13;24.80;66.70
10312;DHT22;5201;48.776;9.128;2023-06-14T15:59:38;24.60;66.20